Time;durP1;ratioP1;P1;durP2;ratioP2;P2;SDS_P1;SDS_P2;PMS_P1;PMS_P2;Temp;Humidity;BMP_temperature;BMP_pressure;BME280_temperature;BME280_humidity;BME280_pressure;Samples;Min_cycle;Max_cycle;Signal;HPM_P1;HPM_P2
2023/12/11 00:01:32;;;;;;;20.45;4.35;;;10.90;99.90;;;;;;5097245;28;20437;-68
2023/12/11 00:03:59;;;;;;;24.92;5.30;;;10.90;99.90;;;;;;5097323;28;20044;-68
2023/12/11 00:06:26;;;;;;;24.83;4.82;;;10.90;99.90;;;;;;5097387;28;20456;-69
2023/12/11 00:08:53;;;;;;;24.20;5.10;;;10.90;99.90;;;;;;5097075;28;20461;-69
2023/12/11 00:11:20;;;;;;;29.52;4.80;;;11.00;99.90;;;;;;5096072;28;20362;-68
2023/12/11 00:13:47;;;;;;;20.73;4.43;;;11.00;99.90;;;;;;5096877;28;20040;-68
2023/12/11 00:16:14;;;;;;;26.52;5.20;;;10.90;99.90;;;;;;5093862;28;20447;-69
2023/12/11 00:18:41;;;;;;;24.02;4.85;;;10.80;99.90;;;;;;5091202;28;20036;-67
2023/12/11 00:21:08;;;;;;;21.60;4.45;;;10.70;99.90;;;;;;5093735;28;20032;-68
2023/12/11 00:23:34;;;;;;;22.98;4.35;;;10.50;99.90;;;;;;5096214;28;20095;-68
2023/12/11 00:26:01;;;;;;;29.25;5.15;;;10.40;99.90;;;;;;5096349;28;20115;-68
2023/12/11 00:28:28;;;;;;;23.95;4.70;;;10.30;99.90;;;;;;5096290;28;20423;-68
2023/12/11 00:30:55;;;;;;;28.20;4.53;;;10.30;99.90;;;;;;5096942;28;20091;-68
2023/12/11 00:33:21;;;;;;;25.38;4.63;;;10.30;99.90;;;;;;5096392;28;20086;-68
2023/12/11 00:35:48;;;;;;;21.65;4.05;;;10.30;99.90;;;;;;5096690;28;20114;-67
2023/12/11 00:38:15;;;;;;;21.13;3.75;;;10.30;99.90;;;;;;5096335;28;20089;-68
2023/12/11 00:40:42;;;;;;;25.52;4.75;;;10.20;99.90;;;;;;5096346;28;20042;-67
2023/12/11 00:43:09;;;;;;;27.30;5.00;;;10.20;99.90;;;;;;5095837;28;20562;-68
2023/12/11 00:45:36;;;;;;;17.75;3.28;;;10.20;99.90;;;;;;5096625;28;20036;-68
2023/12/11 00:48:02;;;;;;;19.90;3.90;;;10.20;99.90;;;;;;5096529;28;20062;-68
2023/12/11 00:50:29;;;;;;;18.10;3.70;;;10.30;99.90;;;;;;5096499;28;20048;-68
2023/12/11 00:52:56;;;;;;;17.85;3.50;;;10.30;99.90;;;;;;5096082;28;20040;-69
2023/12/11 00:55:23;;;;;;;20.70;3.45;;;10.30;99.90;;;;;;5096241;28;20435;-67
2023/12/11 00:57:50;;;;;;;22.67;3.58;;;10.30;99.90;;;;;;5095941;28;20071;-67
2023/12/11 01:00:17;;;;;;;19.23;3.70;;;10.30;99.90;;;;;;5095917;28;20057;-68
2023/12/11 01:02:44;;;;;;;22.95;3.80;;;10.30;99.90;;;;;;5096033;28;20090;-68
2023/12/11 01:05:11;;;;;;;19.65;3.95;;;10.40;99.90;;;;;;5096235;28;20089;-68
2023/12/11 01:07:37;;;;;;;16.42;2.95;;;10.40;99.90;;;;;;5095859;28;20618;-67
2023/12/11 01:10:04;;;;;;;20.30;4.20;;;10.40;99.90;;;;;;5095960;28;20488;-68
2023/12/11 01:12:31;;;;;;;18.75;4.30;;;10.40;99.90;;;;;;5095884;28;20068;-68
2023/12/11 01:14:58;;;;;;;20.52;3.80;;;10.40;99.90;;;;;;5095711;28;20044;-68
2023/12/11 01:17:25;;;;;;;20.83;3.90;;;10.40;99.90;;;;;;5094725;28;20043;-68
2023/12/11 01:20:06;;;;;;;21.67;4.28;;;10.50;99.90;;;;;;5095728;28;20377;-67
2023/12/11 01:22:33;;;;;;;15.20;3.47;;;10.50;99.90;;;;;;5096006;28;20040;-67
2023/12/11 01:25:02;;;;;;;19.98;3.97;;;10.50;99.90;;;;;;5095671;28;20040;-67
2023/12/11 01:27:30;;;;;;;19.48;3.97;;;10.60;99.90;;;;;;5095601;28;20036;-68
2023/12/11 01:29:57;;;;;;;16.73;3.72;;;10.60;99.90;;;;;;5094069;28;20446;-67
2023/12/11 01:32:24;;;;;;;20.13;4.28;;;10.60;99.90;;;;;;5095461;28;20160;-67
2023/12/11 01:34:51;;;;;;;17.88;3.58;;;10.60;99.90;;;;;;5095492;28;20043;-67
2023/12/11 01:37:18;;;;;;;17.38;3.42;;;10.70;99.90;;;;;;5095505;28;20485;-68
2023/12/11 01:39:45;;;;;;;16.38;3.30;;;10.70;99.90;;;;;;5095106;28;20032;-69
2023/12/11 01:42:12;;;;;;;16.45;3.50;;;10.70;99.90;;;;;;5095260;28;20055;-67
2023/12/11 01:44:39;;;;;;;16.35;3.42;;;10.70;99.90;;;;;;5094266;28;20067;-69
2023/12/11 01:47:05;;;;;;;17.75;3.35;;;10.70;99.90;;;;;;5095094;28;20097;-67
2023/12/11 01:49:32;;;;;;;17.60;3.88;;;10.70;99.90;;;;;;5095085;28;20051;-67
2023/12/11 01:51:59;;;;;;;17.85;3.47;;;10.70;99.90;;;;;;5095009;28;20051;-67
2023/12/11 01:54:26;;;;;;;16.70;3.65;;;10.70;99.90;;;;;;5093798;28;20455;-67
2023/12/11 01:56:53;;;;;;;17.80;3.38;;;10.70;99.90;;;;;;5093750;28;20040;-67
2023/12/11 01:59:20;;;;;;;15.75;2.58;;;10.70;99.90;;;;;;5094722;28;20036;-67
2023/12/11 02:01:46;;;;;;;16.73;3.58;;;10.70;99.90;;;;;;5094788;28;20042;-68
2023/12/11 02:04:15;;;;;;;17.67;4.00;;;10.70;99.90;;;;;;5094785;28;20412;-68
2023/12/11 02:06:42;;;;;;;13.95;3.13;;;10.70;99.90;;;;;;5094772;28;20067;-67
2023/12/11 02:09:10;;;;;;;15.82;3.53;;;10.70;99.90;;;;;;5094727;28;20048;-68
2023/12/11 02:11:37;;;;;;;16.15;3.45;;;10.70;99.90;;;;;;5094955;28;20036;-69
2023/12/11 02:14:04;;;;;;;17.92;3.63;;;10.80;99.90;;;;;;5094898;28;20115;-68
2023/12/11 02:16:31;;;;;;;16.25;3.50;;;10.70;99.90;;;;;;5094877;28;20473;-69
2023/12/11 02:18:58;;;;;;;19.58;3.63;;;10.80;99.90;;;;;;5094431;28;20089;-69
2023/12/11 02:21:25;;;;;;;18.45;3.20;;;10.80;99.90;;;;;;5094567;28;20032;-68
2023/12/11 02:23:51;;;;;;;14.88;3.67;;;10.80;99.90;;;;;;5094582;28;20404;-68
2023/12/11 02:26:18;;;;;;;12.88;3.00;;;10.80;99.90;;;;;;5094712;28;20047;-69
2023/12/11 02:28:45;;;;;;;14.73;2.95;;;10.80;99.90;;;;;;5094439;28;20047;-68
2023/12/11 02:31:12;;;;;;;13.55;3.22;;;10.70;99.90;;;;;;5094616;28;20048;-69
2023/12/11 02:33:39;;;;;;;20.85;3.60;;;10.70;99.90;;;;;;5094518;28;20503;-69
2023/12/11 02:36:06;;;;;;;19.90;3.20;;;10.60;99.90;;;;;;5093977;28;20054;-68
2023/12/11 02:38:32;;;;;;;15.40;3.63;;;10.60;99.90;;;;;;5092803;28;20085;-69
2023/12/11 02:40:59;;;;;;;18.00;3.58;;;10.50;99.90;;;;;;5094043;28;20078;-69
2023/12/11 02:43:26;;;;;;;18.77;3.15;;;10.50;99.90;;;;;;5094111;28;20051;-68
2023/12/11 02:45:53;;;;;;;14.25;3.30;;;10.50;99.90;;;;;;5094414;28;20068;-69
2023/12/11 02:48:20;;;;;;;22.02;4.18;;;10.50;99.90;;;;;;5093900;28;20036;-69
2023/12/11 02:50:47;;;;;;;18.50;3.47;;;10.50;99.90;;;;;;5093989;28;20039;-68
2023/12/11 02:53:14;;;;;;;16.00;3.65;;;10.50;99.90;;;;;;5094253;28;20043;-69
2023/12/11 02:55:40;;;;;;;16.92;3.25;;;10.40;99.90;;;;;;5094065;28;20040;-68
2023/12/11 02:58:07;;;;;;;19.15;3.30;;;10.40;99.90;;;;;;5093102;28;20040;-68
2023/12/11 03:00:35;;;;;;;13.80;2.92;;;10.40;99.90;;;;;;5092553;28;20469;-68
2023/12/11 03:03:02;;;;;;;13.98;3.17;;;10.30;99.90;;;;;;5093577;28;20491;-68
2023/12/11 03:05:29;;;;;;;17.02;4.15;;;10.30;99.90;;;;;;5093703;28;20114;-67
2023/12/11 03:07:56;;;;;;;19.88;3.58;;;10.30;99.90;;;;;;5093924;28;20040;-68
2023/12/11 03:10:23;;;;;;;21.35;3.83;;;10.30;99.90;;;;;;5093959;28;20043;-67
2023/12/11 03:12:50;;;;;;;15.73;3.10;;;10.30;99.90;;;;;;5093869;28;20044;-68
2023/12/11 03:15:16;;;;;;;20.55;3.15;;;10.20;99.90;;;;;;5093508;28;20417;-67
2023/12/11 03:17:43;;;;;;;22.67;3.30;;;10.20;99.90;;;;;;5093603;28;20388;-67
2023/12/11 03:20:11;;;;;;;18.83;2.97;;;10.20;99.90;;;;;;5093793;28;20037;-67
2023/12/11 03:22:38;;;;;;;14.70;3.30;;;10.20;99.90;;;;;;5093898;28;20534;-67
2023/12/11 03:25:05;;;;;;;20.50;3.40;;;10.20;99.90;;;;;;5093590;28;20085;-67
2023/12/11 03:27:32;;;;;;;15.25;3.42;;;10.20;99.90;;;;;;5093765;28;20055;-67
2023/12/11 03:29:59;;;;;;;14.27;3.42;;;10.10;99.90;;;;;;5093199;28;20044;-67
2023/12/11 03:32:26;;;;;;;18.33;3.20;;;10.10;99.90;;;;;;5093743;28;20040;-68
2023/12/11 03:34:53;;;;;;;15.98;3.20;;;10.10;99.90;;;;;;5093734;28;20047;-67
2023/12/11 03:37:19;;;;;;;19.23;3.22;;;10.00;99.90;;;;;;5093725;28;20639;-68
2023/12/11 03:39:46;;;;;;;17.50;3.88;;;10.00;99.90;;;;;;5093747;28;20044;-67
2023/12/11 03:42:13;;;;;;;17.73;3.20;;;10.00;99.90;;;;;;5093531;28;20044;-67
2023/12/11 03:44:40;;;;;;;13.30;2.92;;;10.00;99.90;;;;;;5093061;28;20105;-67
2023/12/11 03:47:07;;;;;;;18.58;3.63;;;9.90;99.90;;;;;;5093111;28;20584;-67
2023/12/11 03:49:34;;;;;;;21.98;3.85;;;10.00;99.90;;;;;;5093249;28;20429;-67
2023/12/11 03:52:01;;;;;;;21.65;4.45;;;10.00;99.90;;;;;;5093505;28;20047;-67
2023/12/11 03:54:28;;;;;;;19.58;3.42;;;10.00;99.90;;;;;;5093043;28;20499;-67
2023/12/11 03:56:54;;;;;;;16.52;3.40;;;9.90;99.90;;;;;;5092326;28;20044;-68
2023/12/11 03:59:21;;;;;;;15.95;3.38;;;9.90;99.90;;;;;;5093300;28;20388;-67
2023/12/11 04:01:48;;;;;;;19.80;4.43;;;9.90;99.90;;;;;;5093351;28;20040;-67
2023/12/11 04:04:15;;;;;;;16.08;3.42;;;9.90;99.90;;;;;;5092157;28;20433;-67
2023/12/11 04:06:42;;;;;;;21.00;4.22;;;9.90;99.90;;;;;;5093409;28;20048;-68
2023/12/11 04:09:09;;;;;;;20.52;3.45;;;9.90;99.90;;;;;;5095897;28;20036;-68
2023/12/11 04:11:36;;;;;;;26.38;4.18;;;9.90;99.90;;;;;;5096888;28;20439;-68
2023/12/11 04:14:03;;;;;;;18.42;3.17;;;9.90;99.90;;;;;;5096849;28;20044;-68
2023/12/11 04:16:29;;;;;;;24.75;3.60;;;9.90;99.90;;;;;;5097006;28;20471;-68
2023/12/11 04:18:56;;;;;;;23.10;4.05;;;9.90;99.90;;;;;;5096587;28;20036;-67
2023/12/11 04:21:26;;;;;;;20.70;3.45;;;9.80;99.90;;;;;;5097140;28;20036;-68
2023/12/11 04:23:55;;;;;;;23.48;3.90;;;9.80;99.90;;;;;;5096591;28;20058;-69
2023/12/11 04:26:22;;;;;;;18.25;3.50;;;9.80;99.90;;;;;;5096538;28;20109;-67
2023/12/11 04:28:49;;;;;;;15.45;3.40;;;9.80;99.90;;;;;;5096606;28;20036;-67
2023/12/11 04:31:16;;;;;;;19.52;3.55;;;9.80;99.90;;;;;;5096396;28;20040;-68
2023/12/11 04:33:43;;;;;;;14.95;2.90;;;9.80;99.90;;;;;;5096731;28;20033;-67
2023/12/11 04:36:10;;;;;;;15.63;3.33;;;9.80;99.90;;;;;;5095144;28;20074;-67
2023/12/11 04:38:37;;;;;;;18.13;3.22;;;9.80;99.90;;;;;;5096109;28;20036;-69
2023/12/11 04:41:03;;;;;;;15.40;4.22;;;9.80;99.90;;;;;;5096285;28;20060;-66
2023/12/11 04:43:30;;;;;;;17.45;3.20;;;9.70;99.90;;;;;;5096321;28;20048;-66
2023/12/11 04:45:58;;;;;;;21.05;4.32;;;9.80;99.90;;;;;;5096055;28;20123;-66
2023/12/11 04:48:24;;;;;;;19.23;4.13;;;9.80;99.90;;;;;;5096461;28;20537;-66
2023/12/11 04:50:51;;;;;;;17.73;3.47;;;9.80;99.90;;;;;;5096658;28;20389;-66
2023/12/11 04:53:18;;;;;;;16.42;3.45;;;9.80;99.90;;;;;;5096553;28;20044;-66
2023/12/11 04:55:45;;;;;;;18.10;3.55;;;9.80;99.90;;;;;;5095133;28;20545;-67
2023/12/11 04:58:12;;;;;;;19.30;3.67;;;9.90;99.90;;;;;;5096396;28;20044;-65
2023/12/11 05:00:39;;;;;;;20.85;3.83;;;9.90;99.90;;;;;;5096155;28;20110;-65
2023/12/11 05:03:06;;;;;;;17.83;4.05;;;9.90;99.90;;;;;;5096130;28;20040;-66
2023/12/11 05:05:35;;;;;;;19.45;3.47;;;10.00;99.90;;;;;;5096366;28;20044;-66
2023/12/11 05:08:02;;;;;;;21.98;3.75;;;10.00;99.90;;;;;;5094852;28;20461;-65
2023/12/11 05:10:29;;;;;;;19.30;3.83;;;10.00;99.90;;;;;;5095703;28;20050;-65
2023/12/11 05:12:56;;;;;;;17.48;3.47;;;10.10;99.90;;;;;;5095779;28;20036;-65
2023/12/11 05:15:23;;;;;;;20.67;4.00;;;10.10;99.90;;;;;;5095537;28;20496;-66
2023/12/11 05:17:50;;;;;;;19.08;3.72;;;10.20;99.90;;;;;;5096126;28;20055;-66
2023/12/11 05:20:18;;;;;;;16.02;3.28;;;10.20;99.90;;;;;;5094692;28;20123;-66
2023/12/11 05:22:45;;;;;;;19.30;2.90;;;10.20;99.90;;;;;;5095747;28;20036;-66
2023/12/11 05:25:11;;;;;;;19.35;3.53;;;10.30;99.90;;;;;;5095350;28;20374;-66
2023/12/11 05:27:38;;;;;;;21.42;4.32;;;10.30;99.90;;;;;;5095706;28;20040;-66
2023/12/11 05:30:06;;;;;;;15.85;3.15;;;10.30;99.90;;;;;;5094502;28;20044;-66
2023/12/11 05:32:32;;;;;;;18.02;3.70;;;10.30;99.90;;;;;;5095424;28;20123;-66
2023/12/11 05:34:59;;;;;;;14.88;3.50;;;10.40;99.90;;;;;;5093999;28;20036;-66
2023/12/11 05:37:26;;;;;;;15.07;2.97;;;10.40;99.90;;;;;;5095090;28;20052;-66
2023/12/11 05:39:53;;;;;;;16.70;3.25;;;10.40;99.90;;;;;;5095255;28;20540;-66
2023/12/11 05:42:40;;;;;;;17.83;2.88;;;10.40;99.90;;;;;;5095445;28;20051;-66
2023/12/11 05:45:08;;;;;;;17.83;4.10;;;10.50;99.90;;;;;;5094642;28;20060;-66
2023/12/11 05:47:38;;;;;;;15.15;2.88;;;10.50;99.90;;;;;;5095135;28;20032;-66
2023/12/11 05:50:04;;;;;;;12.18;2.95;;;10.50;99.90;;;;;;5095338;28;20036;-65
2023/12/11 05:52:31;;;;;;;16.92;3.38;;;10.50;99.90;;;;;;5094015;28;20469;-65
2023/12/11 05:54:58;;;;;;;14.23;3.08;;;10.50;99.90;;;;;;5095220;28;20123;-65
2023/12/11 05:57:25;;;;;;;18.17;3.30;;;10.50;99.90;;;;;;5095319;28;20422;-65
2023/12/11 05:59:52;;;;;;;17.35;3.45;;;10.50;99.90;;;;;;5094942;28;20115;-65
2023/12/11 06:02:19;;;;;;;25.05;3.80;;;10.50;99.90;;;;;;5094742;28;20119;-65
2023/12/11 06:04:46;;;;;;;17.40;3.22;;;10.50;99.90;;;;;;5094999;28;20044;-66
2023/12/11 06:07:12;;;;;;;19.27;3.28;;;10.50;99.90;;;;;;5094582;28;20492;-66
2023/12/11 06:09:39;;;;;;;19.38;3.28;;;10.50;99.90;;;;;;5094721;28;20066;-66
2023/12/11 06:12:06;;;;;;;14.48;3.22;;;10.50;99.90;;;;;;5094641;28;20039;-66
2023/12/11 06:14:33;;;;;;;17.77;3.72;;;10.50;99.90;;;;;;5094560;28;20123;-66
2023/12/11 06:17:00;;;;;;;14.00;3.22;;;10.50;99.90;;;;;;5094274;28;20575;-66
2023/12/11 06:19:27;;;;;;;21.17;3.78;;;10.50;99.90;;;;;;5094435;28;20040;-66
2023/12/11 06:21:54;;;;;;;16.10;3.45;;;10.40;99.90;;;;;;5093319;28;20089;-66
2023/12/11 06:24:20;;;;;;;13.88;3.10;;;10.40;99.90;;;;;;5093548;28;20516;-66
2023/12/11 06:26:47;;;;;;;17.80;3.15;;;10.40;99.90;;;;;;5094580;28;20388;-66
2023/12/11 06:29:14;;;;;;;15.18;2.88;;;10.40;99.90;;;;;;5092819;28;20036;-66
2023/12/11 06:31:41;;;;;;;15.07;3.10;;;10.40;99.90;;;;;;5094136;28;20060;-66
2023/12/11 06:34:07;;;;;;;15.77;3.10;;;10.30;99.90;;;;;;5094458;28;20040;-66
2023/12/11 06:36:34;;;;;;;22.13;3.13;;;10.30;99.90;;;;;;5094417;28;20135;-66
2023/12/11 06:39:01;;;;;;;18.58;4.13;;;10.20;99.90;;;;;;5094091;28;20098;-66
2023/12/11 06:41:28;;;;;;;14.45;3.00;;;10.10;99.90;;;;;;5093993;28;20110;-66
2023/12/11 06:43:57;;;;;;;17.85;3.28;;;10.10;99.90;;;;;;5093788;28;20052;-66
2023/12/11 06:46:28;;;;;;;16.85;2.97;;;10.00;99.90;;;;;;5092477;28;20046;-66
2023/12/11 06:48:56;;;;;;;16.48;3.17;;;10.00;99.90;;;;;;5093865;28;20378;-66
2023/12/11 06:51:23;;;;;;;21.65;3.33;;;9.90;99.90;;;;;;5092592;28;20541;-66
2023/12/11 06:53:50;;;;;;;17.55;2.85;;;9.80;99.90;;;;;;5094255;28;20046;-66
2023/12/11 06:56:18;;;;;;;19.60;3.15;;;9.80;99.90;;;;;;5093700;28;20067;-66
2023/12/11 06:58:44;;;;;;;16.33;3.42;;;9.70;99.90;;;;;;5093966;28;20062;-66
2023/12/11 07:01:11;;;;;;;17.90;3.35;;;9.70;99.90;;;;;;5092607;28;20091;-65
2023/12/11 07:03:38;;;;;;;15.20;3.15;;;9.70;99.90;;;;;;5094295;28;20028;-66
2023/12/11 07:06:05;;;;;;;12.80;2.53;;;9.60;99.90;;;;;;5094143;28;20377;-66
2023/12/11 07:08:32;;;;;;;18.52;2.88;;;9.60;99.90;;;;;;5094125;28;20036;-66
2023/12/11 07:10:59;;;;;;;14.30;2.85;;;9.50;99.90;;;;;;5094056;28;20058;-66
2023/12/11 07:13:26;;;;;;;13.52;2.95;;;9.40;99.90;;;;;;5094099;28;20044;-65
2023/12/11 07:15:53;;;;;;;14.52;2.83;;;9.40;99.90;;;;;;5093872;28;20063;-66
2023/12/11 07:18:21;;;;;;;21.67;4.15;;;9.40;99.90;;;;;;5093915;28;20133;-66
2023/12/11 07:20:49;;;;;;;19.35;2.83;;;9.30;99.90;;;;;;5093977;28;20526;-68
2023/12/11 07:23:15;;;;;;;16.52;2.58;;;9.30;99.90;;;;;;5093810;28;20076;-68
2023/12/11 07:25:42;;;;;;;14.82;2.85;;;9.20;99.90;;;;;;5093501;28;20036;-69
2023/12/11 07:28:09;;;;;;;20.23;3.15;;;9.20;99.90;;;;;;5093690;28;20093;-68
2023/12/11 07:30:36;;;;;;;13.73;2.17;;;9.10;99.90;;;;;;5093723;28;20416;-68
2023/12/11 07:33:03;;;;;;;13.82;3.05;;;9.10;99.90;;;;;;5093922;28;20050;-69
2023/12/11 07:35:30;;;;;;;16.77;2.97;;;9.00;99.90;;;;;;5093891;28;20079;-69
2023/12/11 07:37:57;;;;;;;14.43;2.65;;;9.00;99.90;;;;;;5092443;28;20040;-68
2023/12/11 07:40:24;;;;;;;18.48;3.63;;;8.90;99.90;;;;;;5093482;28;20047;-68
2023/12/11 07:42:51;;;;;;;12.45;2.67;;;8.90;99.90;;;;;;5093958;28;20089;-68
2023/12/11 07:45:19;;;;;;;18.75;2.50;;;8.90;99.90;;;;;;5097454;28;20046;-68
2023/12/11 07:47:45;;;;;;;16.98;3.05;;;8.90;99.90;;;;;;5097270;28;20047;-68
2023/12/11 07:50:12;;;;;;;15.55;2.80;;;9.00;99.90;;;;;;5097359;28;20051;-66
2023/12/11 07:52:41;;;;;;;12.55;2.50;;;9.00;99.90;;;;;;5095861;28;20064;-66
2023/12/11 07:55:07;;;;;;;12.50;2.63;;;9.10;99.90;;;;;;5097534;28;20051;-66
2023/12/11 07:57:34;;;;;;;14.23;2.70;;;9.10;99.90;;;;;;5096895;28;20044;-65
2023/12/11 08:00:03;;;;;;;15.73;2.67;;;9.20;99.90;;;;;;5096866;28;20074;-65
2023/12/11 08:02:33;;;;;;;11.23;2.33;;;9.20;99.90;;;;;;5097510;28;20456;-65
2023/12/11 08:04:59;;;;;;;15.48;2.30;;;9.30;99.90;;;;;;5096841;28;20047;-65
2023/12/11 08:07:26;;;;;;;15.13;2.58;;;9.30;99.90;;;;;;5097148;28;20043;-66
2023/12/11 08:09:53;;;;;;;10.82;2.40;;;9.40;99.90;;;;;;5096694;28;20475;-66
2023/12/11 08:12:20;;;;;;;12.95;2.67;;;9.40;99.90;;;;;;5096806;28;20473;-66
2023/12/11 08:14:47;;;;;;;11.40;2.08;;;9.40;99.90;;;;;;5097135;28;20032;-66
2023/12/11 08:17:14;;;;;;;15.95;3.10;;;9.40;99.90;;;;;;5096468;28;20055;-66
2023/12/11 08:19:40;;;;;;;9.80;2.28;;;9.40;99.90;;;;;;5096909;28;20436;-66
2023/12/11 08:22:07;;;;;;;14.23;2.47;;;9.50;99.90;;;;;;5096936;28;20054;-66
2023/12/11 08:24:35;;;;;;;13.48;2.75;;;9.50;99.90;;;;;;5096853;28;20115;-66
2023/12/11 08:27:07;;;;;;;15.88;2.95;;;9.50;99.90;;;;;;5096814;28;20044;-65
2023/12/11 08:29:34;;;;;;;12.55;2.50;;;9.50;99.90;;;;;;5096382;28;20397;-68
2023/12/11 08:32:02;;;;;;;12.80;3.60;;;9.50;99.90;;;;;;5096303;28;20048;-69
2023/12/11 08:34:31;;;;;;;9.75;2.28;;;9.50;99.90;;;;;;5096448;28;20451;-67
2023/12/11 08:36:58;;;;;;;11.70;2.20;;;9.60;99.90;;;;;;5096261;28;20110;-68
2023/12/11 08:39:25;;;;;;;13.25;2.33;;;9.60;99.90;;;;;;5096841;28;20062;-67
2023/12/11 08:41:51;;;;;;;16.45;2.75;;;9.60;99.90;;;;;;5096109;28;20047;-67
2023/12/11 08:44:18;;;;;;;11.88;2.53;;;9.60;99.90;;;;;;5095536;28;20052;-67
2023/12/11 08:46:45;;;;;;;13.32;2.15;;;9.60;99.90;;;;;;5096500;28;20385;-68
2023/12/11 08:49:12;;;;;;;13.43;3.28;;;9.60;99.90;;;;;;5096311;28;20106;-68
2023/12/11 08:51:40;;;;;;;12.75;2.33;;;9.60;99.90;;;;;;5096242;28;20090;-68
2023/12/11 08:54:06;;;;;;;11.57;2.03;;;9.50;99.90;;;;;;5096069;28;20044;-67
2023/12/11 08:56:33;;;;;;;9.82;2.10;;;9.50;99.90;;;;;;5095800;28;20048;-68
2023/12/11 08:59:00;;;;;;;12.65;2.20;;;9.40;99.90;;;;;;5095533;28;20446;-67
2023/12/11 09:01:28;;;;;;;13.20;2.50;;;9.40;99.90;;;;;;5094171;28;20032;-66
2023/12/11 09:03:55;;;;;;;12.45;2.03;;;9.30;99.90;;;;;;5095673;28;20040;-65
2023/12/11 09:06:22;;;;;;;14.63;2.90;;;9.30;99.90;;;;;;5095449;28;20044;-65
2023/12/11 09:08:50;;;;;;;12.10;2.20;;;9.30;99.90;;;;;;5096001;28;20480;-66
2023/12/11 09:11:17;;;;;;;11.50;2.03;;;9.30;99.90;;;;;;5095724;28;20040;-66
2023/12/11 09:13:44;;;;;;;11.73;2.33;;;9.30;99.90;;;;;;5095439;28;20485;-65
2023/12/11 09:16:10;;;;;;;7.40;1.75;;;9.30;99.90;;;;;;5095524;28;20036;-66
2023/12/11 09:18:37;;;;;;;9.85;2.00;;;9.30;99.90;;;;;;5095530;28;20044;-65
2023/12/11 09:21:04;;;;;;;18.90;2.78;;;9.30;99.90;;;;;;5095910;28;20036;-66
2023/12/11 09:23:31;;;;;;;8.38;1.95;;;9.40;99.90;;;;;;5094597;28;20046;-65
2023/12/11 09:25:58;;;;;;;9.45;2.30;;;9.40;99.90;;;;;;5095907;28;20366;-65
2023/12/11 09:28:25;;;;;;;9.18;1.90;;;9.50;99.90;;;;;;5095541;28;20062;-65
2023/12/11 09:30:59;;;;;;;9.07;1.87;;;9.50;99.90;;;;;;5095771;28;20068;-65
2023/12/11 09:33:26;;;;;;;8.07;1.45;;;9.60;99.90;;;;;;5095634;28;20397;-66
2023/12/11 09:35:53;;;;;;;13.40;2.15;;;9.70;99.90;;;;;;5095296;28;20036;-66
2023/12/11 09:38:20;;;;;;;19.08;2.50;;;9.70;99.90;;;;;;5095497;28;20136;-65
2023/12/11 09:40:47;;;;;;;10.70;1.95;;;9.80;99.90;;;;;;5095176;28;20064;-66
2023/12/11 09:43:13;;;;;;;10.82;2.15;;;9.80;99.90;;;;;;5095227;28;20051;-66
2023/12/11 09:45:40;;;;;;;12.90;2.67;;;9.90;99.90;;;;;;5088762;28;20040;-66
2023/12/11 09:48:07;;;;;;;10.48;1.85;;;9.90;99.90;;;;;;5094079;28;20039;-66
2023/12/11 09:50:41;;;;;;;11.35;2.47;;;10.00;99.90;;;;;;5075892;28;20040;-66
2023/12/11 09:53:08;;;;;;;8.80;2.10;;;10.00;99.90;;;;;;5093778;28;20044;-66
2023/12/11 09:55:35;;;;;;;8.52;1.95;;;10.10;99.90;;;;;;5075200;28;20052;-65
2023/12/11 09:58:02;;;;;;;12.77;1.90;;;10.10;99.90;;;;;;5093718;28;20497;-65
2023/12/11 10:00:28;;;;;;;7.05;2.03;;;10.10;99.90;;;;;;5083860;28;20059;-65
2023/12/11 10:02:55;;;;;;;10.07;1.83;;;10.20;99.90;;;;;;5077127;28;20444;-67
2023/12/11 10:05:22;;;;;;;11.70;2.08;;;10.20;99.90;;;;;;5072568;28;20041;-65
2023/12/11 10:07:49;;;;;;;11.60;2.45;;;10.30;99.90;;;;;;5080403;28;20400;-65
2023/12/11 10:10:16;;;;;;;10.57;2.03;;;10.30;99.90;;;;;;5075220;28;20048;-65
2023/12/11 10:12:43;;;;;;;8.65;2.58;;;10.30;99.90;;;;;;5073941;28;20040;-65
2023/12/11 10:15:10;;;;;;;9.30;2.30;;;10.30;99.90;;;;;;5076311;28;20390;-66
2023/12/11 10:17:36;;;;;;;12.57;2.28;;;10.30;99.90;;;;;;5092909;28;20036;-65
2023/12/11 10:20:05;;;;;;;8.90;2.17;;;10.40;99.90;;;;;;5078731;28;20033;-66
2023/12/11 10:22:32;;;;;;;9.65;2.13;;;10.40;99.90;;;;;;5093145;28;20481;-66
2023/12/11 10:24:58;;;;;;;9.93;2.20;;;10.50;99.90;;;;;;5079518;28;20041;-65
2023/12/11 10:27:25;;;;;;;11.30;2.22;;;10.50;99.90;;;;;;5056983;28;20464;-64
2023/12/11 10:29:52;;;;;;;8.68;2.00;;;10.50;99.90;;;;;;5082303;28;20045;-65
2023/12/11 10:32:19;;;;;;;16.38;2.30;;;10.50;99.90;;;;;;5073624;28;20040;-64
2023/12/11 10:34:48;;;;;;;12.32;2.42;;;10.50;99.90;;;;;;5076748;28;20040;-64
2023/12/11 10:37:17;;;;;;;9.98;2.25;;;10.50;99.90;;;;;;5073585;28;20052;-64
2023/12/11 10:39:44;;;;;;;7.47;1.85;;;10.50;99.90;;;;;;5073384;28;20040;-65
2023/12/11 10:42:10;;;;;;;9.38;1.92;;;10.50;99.90;;;;;;5073593;28;20033;-65
2023/12/11 10:44:37;;;;;;;10.90;2.10;;;10.50;99.90;;;;;;5073424;28;20234;-64
2023/12/11 10:47:15;;;;;;;10.15;1.88;;;10.40;99.90;;;;;;5088935;28;20054;-65
2023/12/11 10:49:42;;;;;;;8.85;1.80;;;10.40;99.90;;;;;;5082379;28;20059;-65
2023/12/11 10:52:09;;;;;;;6.68;1.85;;;10.40;99.90;;;;;;5090581;28;20489;-64
2023/12/11 10:54:37;;;;;;;9.60;2.55;;;10.40;99.90;;;;;;5082333;28;20115;-66
2023/12/11 10:57:04;;;;;;;7.25;1.80;;;10.40;99.90;;;;;;5073059;28;20048;-66
2023/12/11 10:59:31;;;;;;;9.40;3.00;;;10.40;99.90;;;;;;5073121;28;20089;-67
2023/12/11 11:01:58;;;;;;;7.50;1.98;;;10.30;99.90;;;;;;5081482;28;20362;-65
2023/12/11 11:04:25;;;;;;;7.82;2.00;;;10.40;99.90;;;;;;5085443;28;20032;-65
2023/12/11 11:06:52;;;;;;;23.85;3.00;;;10.40;99.90;;;;;;5073234;28;20538;-65
2023/12/11 11:09:19;;;;;;;6.10;1.52;;;10.40;99.90;;;;;;5072941;28;20108;-66
2023/12/11 11:11:45;;;;;;;6.60;1.40;;;10.40;99.90;;;;;;5073073;28;20040;-65
2023/12/11 11:14:12;;;;;;;5.95;1.15;;;10.50;99.90;;;;;;5073172;28;20052;-65
2023/12/11 11:16:39;;;;;;;9.80;1.58;;;10.50;99.90;;;;;;5072824;28;20052;-65
2023/12/11 11:19:06;;;;;;;10.10;1.70;;;10.50;99.90;;;;;;5072066;28;20086;-65
2023/12/11 11:21:33;;;;;;;7.30;1.70;;;10.50;99.90;;;;;;5085400;28;20048;-65
2023/12/11 11:24:00;;;;;;;7.20;1.23;;;10.50;99.90;;;;;;5091112;28;20043;-64
2023/12/11 11:26:27;;;;;;;9.38;2.05;;;10.40;99.90;;;;;;5092336;28;20105;-65
2023/12/11 11:28:53;;;;;;;8.27;1.60;;;10.40;99.90;;;;;;5090640;28;20043;-65
2023/12/11 11:31:20;;;;;;;8.55;1.77;;;10.40;99.90;;;;;;5072791;28;20054;-65
2023/12/11 11:33:56;;;;;;;6.33;1.80;;;10.40;99.90;;;;;;5073038;28;20486;-64
2023/12/11 11:36:24;;;;;;;7.18;1.90;;;10.40;99.90;;;;;;5072955;28;20099;-65
2023/12/11 11:38:51;;;;;;;8.52;2.00;;;10.40;99.90;;;;;;5072774;28;20408;-65
2023/12/11 11:41:17;;;;;;;9.93;2.10;;;10.40;99.90;;;;;;5072929;28;20044;-66
2023/12/11 11:43:45;;;;;;;8.90;1.40;;;10.50;99.90;;;;;;5072559;28;20040;-65
2023/12/11 11:46:12;;;;;;;9.40;1.67;;;10.50;99.90;;;;;;5072851;28;20045;-64
2023/12/11 11:48:39;;;;;;;8.70;1.83;;;10.60;99.90;;;;;;5072712;28;20374;-66
2023/12/11 11:51:06;;;;;;;9.38;1.63;;;10.60;99.90;;;;;;5081828;28;20051;-64
2023/12/11 11:53:33;;;;;;;7.75;1.90;;;10.60;99.90;;;;;;5092212;28;20528;-65
2023/12/11 11:56:00;;;;;;;9.77;2.03;;;10.70;99.90;;;;;;5075110;28;20045;-65
2023/12/11 11:58:27;;;;;;;7.80;1.63;;;10.70;99.90;;;;;;5071382;28;20147;-65
2023/12/11 12:00:53;;;;;;;11.68;2.40;;;10.70;99.90;;;;;;5072765;28;20048;-65
2023/12/11 12:03:20;;;;;;;11.63;2.10;;;10.70;99.90;;;;;;5073045;28;20524;-65
2023/12/11 12:05:47;;;;;;;9.45;2.42;;;10.80;99.90;;;;;;5075303;28;20040;-64
2023/12/11 12:08:14;;;;;;;7.90;1.95;;;10.80;99.90;;;;;;5091842;28;20101;-64
2023/12/11 12:10:40;;;;;;;9.57;1.70;;;10.80;99.90;;;;;;5088699;28;20032;-64
2023/12/11 12:13:07;;;;;;;7.00;1.70;;;10.80;99.90;;;;;;5091922;28;20431;-65
2023/12/11 12:15:35;;;;;;;9.25;2.13;;;10.90;99.90;;;;;;5089420;28;20036;-64
2023/12/11 12:18:02;;;;;;;6.65;1.80;;;10.90;99.90;;;;;;5091802;28;20447;-65
2023/12/11 12:20:29;;;;;;;6.43;1.75;;;11.00;99.90;;;;;;5092548;28;20074;-64
2023/12/11 12:22:56;;;;;;;8.30;1.90;;;11.00;99.90;;;;;;5086005;28;20119;-65
2023/12/11 12:25:23;;;;;;;7.40;1.88;;;11.00;99.90;;;;;;5092179;28;20040;-65
2023/12/11 12:27:50;;;;;;;11.68;2.00;;;10.90;99.90;;;;;;5088334;28;20500;-64
2023/12/11 12:30:18;;;;;;;10.95;3.28;;;10.90;99.90;;;;;;5093412;28;20477;-64
2023/12/11 12:32:45;;;;;;;13.55;2.53;;;10.90;99.90;;;;;;5092823;28;20040;-64
2023/12/11 12:35:11;;;;;;;11.18;1.92;;;10.90;99.90;;;;;;5094935;28;20114;-65
2023/12/11 12:37:39;;;;;;;9.48;2.30;;;10.90;99.90;;;;;;5095072;28;20115;-64
2023/12/11 12:40:06;;;;;;;7.65;2.67;;;10.90;99.90;;;;;;5095494;28;20439;-65
2023/12/11 12:42:33;;;;;;;12.13;2.40;;;11.00;99.90;;;;;;5089080;28;20500;-64